createdAt,value
2018-01-17T00:01:07.598Z,-0.9
2018-01-17T00:02:27.491Z,-0.9
2018-01-17T00:03:49.897Z,-1
2018-01-17T00:05:09.724Z,-1
2018-01-17T00:06:29.595Z,-1.1
2018-01-17T00:07:49.458Z,-1.2
2018-01-17T00:09:11.874Z,-1.2
2018-01-17T00:10:36.820Z,-1.1
2018-01-17T00:11:56.688Z,-1.1
2018-01-17T00:13:24.124Z,-1.1
2018-01-17T00:14:54.119Z,-1
2018-01-17T00:16:13.930Z,-0.9
2018-01-17T00:17:36.369Z,-1.1
2018-01-17T00:18:58.710Z,-1.2
2018-01-17T00:20:21.146Z,-1.2
2018-01-17T00:21:40.996Z,-1.3
2018-01-17T00:23:03.339Z,-1.1
2018-01-17T00:24:23.173Z,-1
2018-01-17T00:25:42.993Z,-0.8
2018-01-17T00:27:02.812Z,-0.8
2018-01-17T00:28:22.685Z,-0.7
2018-01-17T00:29:47.562Z,-0.7
2018-01-17T00:31:07.371Z,-0.7
2018-01-17T00:32:32.284Z,-0.7
2018-01-17T00:33:52.092Z,-0.8
2018-01-17T00:35:19.554Z,-0.9
2018-01-17T00:36:39.390Z,-0.9
2018-01-17T00:38:01.748Z,-0.9
2018-01-17T00:39:24.152Z,-0.8
2018-01-17T00:40:46.512Z,-0.7
2018-01-17T00:42:19.011Z,-0.7
2018-01-17T00:43:41.392Z,-0.7
2018-01-17T00:45:01.227Z,-0.6
2018-01-17T00:46:28.664Z,-0.6
2018-01-17T00:47:51.085Z,-0.6
2018-01-17T00:49:13.435Z,-0.6
2018-01-17T00:50:35.864Z,-0.6
2018-01-17T00:52:00.786Z,-0.6
2018-01-17T00:53:23.156Z,-0.5
2018-01-17T00:54:45.508Z,-0.5
2018-01-17T00:56:05.386Z,-0.5
2018-01-17T00:57:27.720Z,-0.5
2018-01-17T00:58:47.536Z,-0.5
2018-01-17T01:00:12.487Z,-0.5
2018-01-17T01:01:32.406Z,-0.5
2018-01-17T01:02:57.324Z,-0.6
2018-01-17T01:04:24.733Z,-0.7
2018-01-17T01:05:44.571Z,-0.7
2018-01-17T01:07:04.442Z,-0.7
2018-01-17T01:08:26.775Z,-0.7
2018-01-17T01:09:46.650Z,-0.8
2018-01-17T01:11:08.994Z,-0.9
2018-01-17T01:12:31.385Z,-0.8
2018-01-17T01:13:58.794Z,-0.7
2018-01-17T01:15:21.168Z,-0.8
2018-01-17T01:16:53.638Z,-0.8
2018-01-17T01:18:23.619Z,-0.9
2018-01-17T01:19:43.433Z,-0.8
2018-01-17T01:21:08.309Z,-0.8
2018-01-17T01:22:33.188Z,-0.8
2018-01-17T01:23:53.015Z,-0.9
2018-01-17T01:25:22.970Z,-0.9
2018-01-17T01:26:45.317Z,-1
2018-01-17T01:28:05.152Z,-1
2018-01-17T01:29:24.985Z,-1.1
2018-01-17T01:30:44.809Z,-0.9
2018-01-17T01:32:04.644Z,-0.9
2018-01-17T01:33:24.462Z,-0.9
2018-01-17T01:34:51.915Z,-0.9
2018-01-17T01:36:19.356Z,-0.9
2018-01-17T01:37:46.764Z,-0.8
2018-01-17T01:39:09.158Z,-0.7
2018-01-17T01:40:31.580Z,-0.7
2018-01-17T01:41:51.502Z,-0.7
2018-01-17T01:43:24.009Z,-0.6
2018-01-17T01:44:46.406Z,-0.6
2018-01-17T01:46:06.260Z,-0.5
2018-01-17T01:47:26.175Z,-0.3
2018-01-17T01:48:46.037Z,-0.2
2018-01-17T01:50:05.937Z,-0.1
2018-01-17T01:51:28.323Z,-0.2
2018-01-17T01:52:48.171Z,-0.2
2018-01-17T01:54:10.535Z,-0.2
2018-01-17T01:55:35.423Z,-0.2
2018-01-17T01:56:55.319Z,-0.2
2018-01-17T01:58:15.156Z,-0.2
2018-01-17T01:59:34.998Z,-0.1
2018-01-17T02:01:02.484Z,-0.2
2018-01-17T02:02:24.902Z,-0.2
2018-01-17T02:03:44.784Z,-0.2
2018-01-17T02:05:12.265Z,-0.2
2018-01-17T02:06:32.105Z,-0.2
2018-01-17T02:07:51.946Z,-0.1
2018-01-17T02:09:11.797Z,0
2018-01-17T02:10:36.723Z,0
2018-01-17T02:11:56.573Z,0.1
2018-01-17T02:13:18.984Z,0
2018-01-17T02:14:43.886Z,-0.1
2018-01-17T02:16:06.278Z,-0.1
2018-01-17T02:17:26.148Z,-0.3
2018-01-17T02:18:48.519Z,-0.3
2018-01-17T02:20:10.920Z,-0.3
2018-01-17T02:21:30.829Z,-0.3
2018-01-17T02:22:50.671Z,-0.4
2018-01-17T02:24:13.062Z,-0.4
2018-01-17T02:25:40.459Z,-0.4
2018-01-17T02:27:10.465Z,-0.3
2018-01-17T02:28:30.362Z,-0.1
2018-01-17T02:30:00.305Z,0.1
2018-01-17T02:31:20.121Z,0.1
2018-01-17T02:32:39.948Z,0.1
2018-01-17T02:34:02.288Z,0.1
2018-01-17T02:35:22.096Z,0
2018-01-17T02:36:46.991Z,0
2018-01-17T02:38:06.871Z,0
2018-01-17T02:39:29.248Z,0
2018-01-17T02:40:49.082Z,0
2018-01-17T02:42:08.890Z,0
2018-01-17T02:43:28.693Z,0
2018-01-17T02:44:48.488Z,0.1
2018-01-17T02:46:15.949Z,0
2018-01-17T02:47:40.857Z,0.1
2018-01-17T02:49:00.741Z,0.1
2018-01-17T02:50:25.614Z,0.1
2018-01-17T02:51:53.070Z,0.1
2018-01-17T02:53:15.447Z,0.1
2018-01-17T02:54:35.322Z,0.1
2018-01-17T02:55:55.194Z,0.2
2018-01-17T02:57:15.007Z,0.3
2018-01-17T02:58:39.893Z,0.4
2018-01-17T03:00:02.248Z,0.4
2018-01-17T03:01:22.053Z,0.4
2018-01-17T03:02:41.864Z,0.5
2018-01-17T03:04:01.734Z,0.5
2018-01-17T03:05:21.575Z,0.6
2018-01-17T03:06:51.550Z,0.6
2018-01-17T03:08:19.012Z,0.6
2018-01-17T03:09:38.815Z,0.6
2018-01-17T03:10:58.642Z,0.5
2018-01-17T03:12:18.466Z,0.5
2018-01-17T03:13:40.882Z,0.5
2018-01-17T03:15:00.699Z,0.6
2018-01-17T03:16:28.108Z,0.6
2018-01-17T03:17:50.488Z,0.6
2018-01-17T03:19:15.387Z,0.6
2018-01-17T03:20:35.205Z,0.6
2018-01-17T03:22:07.678Z,0.6
2018-01-17T03:23:27.526Z,0.6
2018-01-17T03:24:49.874Z,0.6
2018-01-17T03:26:09.696Z,0.6
2018-01-17T03:27:29.505Z,0.6
2018-01-17T03:28:49.370Z,0.6
2018-01-17T03:30:09.187Z,0.6
2018-01-17T03:31:28.998Z,0.7
2018-01-17T03:32:51.369Z,0.7
2018-01-17T03:34:11.203Z,0.7
2018-01-17T03:35:33.541Z,0.7
2018-01-17T03:36:58.415Z,0.7
2018-01-17T03:38:18.221Z,0.7
2018-01-17T03:39:38.025Z,0.7
2018-01-17T03:40:57.834Z,0.7
2018-01-17T03:42:20.187Z,0.7
2018-01-17T03:43:42.538Z,0.7
2018-01-17T03:45:04.878Z,0.7
2018-01-17T03:46:32.276Z,0.7
2018-01-17T03:47:54.662Z,0.7
2018-01-17T03:49:14.475Z,0.7
2018-01-17T03:50:36.868Z,0.7
2018-01-17T03:52:06.798Z,0.7
2018-01-17T03:53:26.648Z,0.7
2018-01-17T03:54:59.106Z,0.7
2018-01-17T03:56:18.920Z,0.7
2018-01-17T03:57:38.767Z,0.8
2018-01-17T03:59:01.174Z,0.8
2018-01-17T04:00:26.071Z,0.8
2018-01-17T04:01:45.950Z,0.8
2018-01-17T04:03:08.319Z,0.8
2018-01-17T04:04:28.130Z,0.9
2018-01-17T04:05:50.492Z,0.8
2018-01-17T04:07:23.004Z,0.7
2018-01-17T04:08:42.856Z,0.7
2018-01-17T04:10:02.655Z,0.6
2018-01-17T04:11:25.012Z,0.6
2018-01-17T04:12:49.883Z,0.6
2018-01-17T04:14:12.242Z,0.6
2018-01-17T04:15:32.074Z,0.6
2018-01-17T04:16:51.902Z,0.5
2018-01-17T04:18:11.757Z,0.5
2018-01-17T04:19:31.587Z,0.5
2018-01-17T04:20:53.953Z,0.5
2018-01-17T04:22:23.879Z,0.5
2018-01-17T04:23:46.258Z,0.5
2018-01-17T04:25:06.090Z,0.5
2018-01-17T04:26:25.933Z,0.6
2018-01-17T04:27:48.265Z,0.5
2018-01-17T04:29:10.603Z,0.5
2018-01-17T04:30:32.984Z,0.5
2018-01-17T04:31:52.819Z,0.5
2018-01-17T04:33:12.629Z,0.6
2018-01-17T04:34:32.434Z,0.6
2018-01-17T04:35:54.767Z,0.6
2018-01-17T04:37:17.101Z,0.6
2018-01-17T04:38:36.955Z,0.5
2018-01-17T04:39:59.347Z,0.5
2018-01-17T04:41:19.161Z,0.5
2018-01-17T04:42:44.078Z,0.5
2018-01-17T04:44:08.964Z,0.5
2018-01-17T04:45:31.325Z,0.5
2018-01-17T04:46:51.166Z,0.5
2018-01-17T04:48:18.573Z,0.6
2018-01-17T04:49:48.518Z,0.6
2018-01-17T04:51:10.905Z,0.6
2018-01-17T04:52:33.276Z,0.7
2018-01-17T04:53:58.158Z,0.7
2018-01-17T04:55:20.542Z,0.7
2018-01-17T04:56:45.466Z,0.7
2018-01-17T04:58:05.326Z,0.7
2018-01-17T04:59:25.168Z,0.7
2018-01-17T05:00:50.042Z,0.7
2018-01-17T05:02:25.059Z,0.6
2018-01-17T05:03:47.411Z,0.6
2018-01-17T05:05:07.229Z,0.6
2018-01-17T05:06:29.567Z,0.5
2018-01-17T05:07:49.377Z,0.4
2018-01-17T05:09:11.746Z,0.3
2018-01-17T05:10:36.678Z,0.3
2018-01-17T05:11:59.031Z,0.4
2018-01-17T05:13:18.840Z,0.4
2018-01-17T05:14:38.684Z,0.4
2018-01-17T05:16:01.052Z,0.3
2018-01-17T05:17:20.895Z,0.3
2018-01-17T05:18:55.931Z,0.2
2018-01-17T05:20:28.415Z,0.1
2018-01-17T05:21:48.212Z,0.1
2018-01-17T05:23:08.020Z,0.1
2018-01-17T05:24:30.385Z,0.1
2018-01-17T05:25:50.204Z,0
2018-01-17T05:27:22.688Z,0
2018-01-17T05:28:45.037Z,0
2018-01-17T05:30:04.864Z,-0.1
2018-01-17T05:31:27.241Z,0
2018-01-17T05:32:47.073Z,0
2018-01-17T05:34:06.905Z,-0.1
2018-01-17T05:35:26.793Z,-0.1
2018-01-17T05:36:49.210Z,-0.1
2018-01-17T05:38:16.703Z,-0.1
2018-01-17T05:39:39.065Z,-0.1
2018-01-17T05:40:58.959Z,-0.1
2018-01-17T05:42:21.386Z,-0.1
2018-01-17T05:43:41.304Z,-0.1
2018-01-17T05:45:01.176Z,0
2018-01-17T05:46:31.126Z,0
2018-01-17T05:47:56.076Z,0.1
2018-01-17T05:49:15.976Z,0.1
2018-01-17T05:50:35.801Z,0.1
2018-01-17T05:51:58.214Z,0.1
2018-01-17T05:53:23.090Z,0.2
2018-01-17T05:54:47.966Z,0.2
2018-01-17T05:56:17.925Z,0.2
2018-01-17T05:57:37.733Z,0.2
2018-01-17T05:59:02.659Z,0.2
2018-01-17T06:00:22.529Z,0.2
2018-01-17T06:01:42.363Z,0.1
2018-01-17T06:03:02.190Z,0.1
2018-01-17T06:04:22.016Z,-0.1
2018-01-17T06:05:52.017Z,-0.1
2018-01-17T06:07:16.915Z,0
2018-01-17T06:08:36.760Z,-0.1
2018-01-17T06:10:04.179Z,-0.1
2018-01-17T06:11:24.008Z,-0.2
2018-01-17T06:12:56.569Z,-0.1
2018-01-17T06:14:26.567Z,0
2018-01-17T06:15:46.465Z,0.1
2018-01-17T06:17:11.417Z,0.2
2018-01-17T06:18:31.246Z,0.3
2018-01-17T06:19:51.087Z,0.3
2018-01-17T06:21:10.952Z,0.4
2018-01-17T06:22:33.338Z,0.3
2018-01-17T06:23:53.148Z,0.2
2018-01-17T06:25:12.805Z,0.1
2018-01-17T06:26:40.249Z,-0.1
2018-01-17T06:28:00.123Z,-0.1
2018-01-17T06:29:22.473Z,-0.2
2018-01-17T06:30:42.347Z,-0.3
2018-01-17T06:32:04.752Z,-0.3
2018-01-17T06:33:27.126Z,-0.3
2018-01-17T06:34:46.972Z,-0.3
2018-01-17T06:36:06.809Z,-0.3
2018-01-17T06:37:29.160Z,-0.2
2018-01-17T06:38:54.057Z,-0.2
2018-01-17T06:40:16.445Z,-0.2
2018-01-17T06:41:43.871Z,-0.2
2018-01-17T06:43:03.708Z,-0.2
2018-01-17T06:44:23.551Z,-0.2
2018-01-17T06:45:48.463Z,-0.2
2018-01-17T06:47:13.418Z,-0.2
2018-01-17T06:48:33.273Z,-0.2
2018-01-17T06:49:53.101Z,-0.2
2018-01-17T06:51:12.968Z,-0.2
2018-01-17T06:52:40.449Z,-0.2
2018-01-17T06:54:00.330Z,-0.3
2018-01-17T06:55:25.268Z,-0.4
2018-01-17T06:56:50.201Z,-0.5
2018-01-17T06:58:12.553Z,-0.6
2018-01-17T06:59:37.472Z,-0.7
2018-01-17T07:00:57.351Z,-0.8
2018-01-17T07:02:17.169Z,-0.8
2018-01-17T07:03:42.090Z,-0.9
2018-01-17T07:05:04.452Z,-1
2018-01-17T07:06:29.332Z,-1
2018-01-17T07:07:49.154Z,-1
2018-01-17T07:09:08.977Z,-1
2018-01-17T07:10:31.400Z,-1
2018-01-17T07:11:51.253Z,-1
2018-01-17T07:13:13.605Z,-0.9
2018-01-17T07:14:33.431Z,-0.9
2018-01-17T07:15:58.366Z,-0.8
2018-01-17T07:17:18.204Z,-0.7
2018-01-17T07:18:45.655Z,-0.7
2018-01-17T07:20:05.558Z,-0.6
2018-01-17T07:21:25.483Z,-0.6
2018-01-17T07:22:47.879Z,-0.6
2018-01-17T07:24:10.233Z,-0.6
2018-01-17T07:25:32.590Z,-0.7
2018-01-17T07:26:55.001Z,-0.7
2018-01-17T07:28:24.955Z,-0.7
2018-01-17T07:29:54.942Z,-0.6
2018-01-17T07:31:14.768Z,-0.6
2018-01-17T07:32:39.686Z,-0.5
2018-01-17T07:34:14.696Z,-0.4
2018-01-17T07:35:37.067Z,-0.4
2018-01-17T07:37:04.512Z,-0.4
2018-01-17T07:38:24.442Z,-0.4
2018-01-17T07:39:44.275Z,-0.3
2018-01-17T07:41:09.197Z,-0.3
2018-01-17T07:42:29.035Z,-0.3
2018-01-17T07:43:48.902Z,-0.3
2018-01-17T07:45:08.727Z,-0.3
2018-01-17T07:46:41.247Z,-0.4
2018-01-17T07:48:01.098Z,-0.4
2018-01-17T07:49:36.132Z,-0.3
2018-01-17T07:50:58.499Z,-0.3
2018-01-17T07:52:18.357Z,-0.2
2018-01-17T07:53:38.202Z,-0.2
2018-01-17T07:55:00.568Z,-0.2
2018-01-17T07:56:25.544Z,-0.2
2018-01-17T07:57:45.419Z,-0.2
2018-01-17T07:59:05.247Z,-0.2
2018-01-17T08:00:35.201Z,-0.2
2018-01-17T08:01:57.594Z,-0.1
2018-01-17T08:03:19.960Z,-0.1
2018-01-17T08:04:44.911Z,-0.1
2018-01-17T08:06:09.807Z,0
2018-01-17T08:07:37.248Z,0
2018-01-17T08:09:12.293Z,-0.1
2018-01-17T08:10:32.118Z,-0.1
2018-01-17T08:11:51.963Z,-0.2
2018-01-17T08:13:14.313Z,-0.2
2018-01-17T08:14:34.162Z,-0.2
2018-01-17T08:15:54.010Z,-0.2
2018-01-17T08:17:13.845Z,-0.2
2018-01-17T08:18:48.886Z,-0.3
2018-01-17T08:20:08.697Z,-0.3
2018-01-17T08:21:28.581Z,-0.3
2018-01-17T08:22:48.427Z,-0.3
2018-01-17T08:24:08.262Z,-0.3
2018-01-17T08:25:28.088Z,-0.3
2018-01-17T08:26:47.924Z,-0.4
2018-01-17T08:28:15.358Z,-0.4
2018-01-17T08:29:40.244Z,-0.4
2018-01-17T08:31:02.594Z,-0.4
2018-01-17T08:32:35.100Z,-0.3
2018-01-17T08:34:02.525Z,-0.2
2018-01-17T08:35:24.900Z,-0.1
2018-01-17T08:36:44.717Z,-0.1
2018-01-17T08:38:04.592Z,0
2018-01-17T08:39:24.450Z,0
2018-01-17T08:40:44.256Z,0
2018-01-17T08:42:06.636Z,0.1
2018-01-17T08:43:26.513Z,0.1
2018-01-17T08:44:53.951Z,0.1
2018-01-17T08:46:13.754Z,0.1
2018-01-17T08:47:41.185Z,0.2
2018-01-17T08:49:03.539Z,0.2
2018-01-17T08:50:31.009Z,0.3
2018-01-17T08:51:55.905Z,0.3
2018-01-17T08:53:15.741Z,0.3
2018-01-17T08:54:40.648Z,0.3
2018-01-17T08:56:03.026Z,0.3
2018-01-17T08:57:22.842Z,0.3
2018-01-17T08:58:47.716Z,0.3
2018-01-17T09:00:20.193Z,0.3
2018-01-17T09:01:42.564Z,0.3
2018-01-17T09:03:04.904Z,0.3
2018-01-17T09:04:24.771Z,0.3
2018-01-17T09:05:49.672Z,0.2
2018-01-17T09:07:09.495Z,0.2
2018-01-17T09:08:29.363Z,0.2
2018-01-17T09:09:49.166Z,0.2
2018-01-17T09:11:11.587Z,0.2
2018-01-17T09:12:31.432Z,0.2
2018-01-17T09:13:51.275Z,0.1
2018-01-17T09:15:18.748Z,0
2018-01-17T09:16:38.602Z,0
2018-01-17T09:17:58.446Z,-0.1
2018-01-17T09:19:46.140Z,-0.1
2018-01-17T09:21:05.996Z,-0.1
2018-01-17T09:22:41.047Z,-0.1
2018-01-17T09:24:00.952Z,-0.2
2018-01-17T09:25:20.848Z,-0.1
2018-01-17T09:26:43.237Z,-0.1
2018-01-17T09:28:10.674Z,-0.1
2018-01-17T09:29:30.559Z,-0.1
2018-01-17T09:30:50.452Z,0
2018-01-17T09:32:12.794Z,0
2018-01-17T09:33:32.609Z,0.1
2018-01-17T09:35:02.529Z,0.2
2018-01-17T09:36:22.362Z,0.2
2018-01-17T09:37:44.724Z,0.3
2018-01-17T09:39:09.607Z,0.3
2018-01-17T09:40:34.538Z,0.4
2018-01-17T09:41:54.397Z,0.5
2018-01-17T09:43:16.784Z,0.5
2018-01-17T09:44:41.704Z,0.5
2018-01-17T09:46:01.553Z,0.5
2018-01-17T09:47:23.887Z,0.5
2018-01-17T09:48:43.717Z,0.6
2018-01-17T09:50:03.518Z,0.6
2018-01-17T09:51:25.896Z,0.5
2018-01-17T09:52:45.730Z,0.6
2018-01-17T09:54:05.600Z,0.6
2018-01-17T09:55:30.528Z,0.6
2018-01-17T09:56:57.998Z,0.5
2018-01-17T09:58:17.804Z,0.5
2018-01-17T09:59:37.613Z,0.6
2018-01-17T10:01:00.014Z,0.6
2018-01-17T10:02:19.873Z,0.6
2018-01-17T10:03:44.780Z,0.6
2018-01-17T10:05:04.600Z,0.7
2018-01-17T10:06:32.005Z,0.8
2018-01-17T10:07:51.817Z,0.8
2018-01-17T10:09:14.213Z,0.9
2018-01-17T10:10:36.592Z,1
2018-01-17T10:11:58.996Z,1
2018-01-17T10:13:18.808Z,1.1
2018-01-17T10:14:41.167Z,1.2
2018-01-17T10:16:01.021Z,1.4
2018-01-17T10:17:23.377Z,1.4
2018-01-17T10:18:43.221Z,1.6
2018-01-17T10:20:03.080Z,1.6
2018-01-17T10:21:25.429Z,1.5
2018-01-17T10:22:52.860Z,1.5
2018-01-17T10:24:20.257Z,1.5
2018-01-17T10:25:42.594Z,1.4
2018-01-17T10:27:07.482Z,1.3
2018-01-17T10:28:27.339Z,1.2
2018-01-17T10:30:02.389Z,1.1
2018-01-17T10:31:22.208Z,1.1
2018-01-17T10:32:52.149Z,1.1
2018-01-17T10:34:24.625Z,1
2018-01-17T10:35:44.443Z,1
2018-01-17T10:37:06.805Z,1
2018-01-17T10:38:26.688Z,1
2018-01-17T10:39:49.034Z,1
2018-01-17T10:41:08.846Z,1
2018-01-17T10:42:28.719Z,1
2018-01-17T10:43:48.526Z,1
2018-01-17T10:45:08.338Z,1
2018-01-17T10:46:30.686Z,1
2018-01-17T10:47:53.038Z,1
2018-01-17T10:49:12.848Z,1
2018-01-17T10:50:32.654Z,1
2018-01-17T10:52:05.139Z,1.1
2018-01-17T10:53:32.555Z,1.1
2018-01-17T10:54:52.400Z,1.2
2018-01-17T10:56:12.257Z,1.3
2018-01-17T10:57:34.644Z,1.3
2018-01-17T10:58:57.027Z,1.3
2018-01-17T11:00:16.835Z,1.4
2018-01-17T11:01:36.705Z,1.2
2018-01-17T11:02:56.553Z,1.1
2018-01-17T11:04:16.433Z,1
2018-01-17T11:05:36.266Z,0.8
2018-01-17T11:06:58.642Z,0.8
2018-01-17T11:08:18.465Z,0.8
2018-01-17T11:09:38.321Z,0.7
2018-01-17T11:11:00.661Z,0.7
2018-01-17T11:12:20.507Z,0.7
2018-01-17T11:13:40.386Z,0.7
2018-01-17T11:15:02.730Z,0.7
2018-01-17T11:16:25.089Z,0.6
2018-01-17T11:17:52.483Z,0.6
2018-01-17T11:19:14.890Z,0.6
2018-01-17T11:20:37.263Z,0.7
2018-01-17T11:21:57.085Z,0.8
2018-01-17T11:23:21.968Z,0.7
2018-01-17T11:24:41.795Z,0.7
2018-01-17T11:26:01.630Z,0.7
2018-01-17T11:27:26.560Z,0.7
2018-01-17T11:28:46.459Z,0.7
2018-01-17T11:30:06.357Z,0.8
2018-01-17T11:31:28.703Z,0.7
2018-01-17T11:32:48.505Z,0.8
2018-01-17T11:34:13.400Z,0.6
2018-01-17T11:35:33.209Z,0.6
2018-01-17T11:36:53.023Z,0.5
2018-01-17T11:38:15.354Z,0.5
2018-01-17T11:39:35.219Z,0.6
2018-01-17T11:41:00.103Z,0.8
2018-01-17T11:42:25.034Z,1
2018-01-17T11:43:44.870Z,1
2018-01-17T11:45:27.469Z,1.1
2018-01-17T11:46:47.329Z,1.2
2018-01-17T11:48:07.131Z,1.3
2018-01-17T11:49:29.477Z,1.4
2018-01-17T11:50:49.331Z,1.4
2018-01-17T11:52:11.703Z,1.4
2018-01-17T11:53:34.037Z,1.3
2018-01-17T11:54:53.841Z,1.3
2018-01-17T11:56:13.638Z,1.2
2018-01-17T11:57:33.444Z,1.2
2018-01-17T11:58:55.812Z,1.1
2018-01-17T12:00:18.159Z,1.1
2018-01-17T12:01:37.960Z,1.2
2018-01-17T12:03:07.889Z,1.3
2018-01-17T12:04:27.761Z,1.4
2018-01-17T12:05:47.570Z,1.5
2018-01-17T12:07:07.384Z,1.7
2018-01-17T12:08:27.227Z,1.8
2018-01-17T12:09:47.030Z,2.2
2018-01-17T12:11:09.404Z,2.4
2018-01-17T12:12:29.216Z,2.7
2018-01-17T12:13:49.055Z,3
2018-01-17T12:15:13.974Z,3.2
2018-01-17T12:16:38.852Z,3.6
2018-01-17T12:17:58.675Z,3.6
2018-01-17T12:19:21.038Z,3.6
2018-01-17T12:20:48.456Z,3.5
2018-01-17T12:22:10.830Z,3.5
2018-01-17T12:23:30.745Z,3.2
2018-01-17T12:24:53.079Z,2.8
2018-01-17T12:26:12.938Z,2.7
2018-01-17T12:27:35.335Z,2.3
2018-01-17T12:28:55.140Z,1.9
2018-01-17T12:30:17.486Z,2
2018-01-17T12:31:37.331Z,2.1
2018-01-17T12:32:57.127Z,2.2
2018-01-17T12:34:19.483Z,2
2018-01-17T12:35:41.867Z,1.9
2018-01-17T12:37:11.804Z,2
2018-01-17T12:38:36.736Z,2.2
2018-01-17T12:40:01.639Z,2.3
2018-01-17T12:41:21.532Z,2.3
2018-01-17T12:42:41.392Z,2.2
2018-01-17T12:44:08.824Z,2.2
2018-01-17T12:45:28.653Z,2
2018-01-17T12:46:56.077Z,2
2018-01-17T12:48:15.908Z,2.1
2018-01-17T12:49:40.864Z,1.9
2018-01-17T12:51:00.760Z,1.7
2018-01-17T12:52:20.563Z,1.6
2018-01-17T12:53:40.455Z,1.6
2018-01-17T12:55:07.870Z,1.7
2018-01-17T12:56:32.761Z,1.8
2018-01-17T12:57:55.094Z,1.9
2018-01-17T12:59:27.575Z,2
2018-01-17T13:00:49.919Z,2.1
2018-01-17T13:02:09.731Z,2.2
2018-01-17T13:03:29.569Z,2.4
2018-01-17T13:04:51.963Z,2.4
2018-01-17T13:06:16.858Z,2.3
2018-01-17T13:07:41.767Z,2.2
2018-01-17T13:09:06.669Z,2
2018-01-17T13:10:26.517Z,1.8
2018-01-17T13:11:48.866Z,1.7
2018-01-17T13:13:08.670Z,1.9
2018-01-17T13:14:28.479Z,1.8
2018-01-17T13:15:50.902Z,1.6
2018-01-17T13:17:10.786Z,1.3
2018-01-17T13:18:30.599Z,1.5
2018-01-17T13:19:50.459Z,1.7
2018-01-17T13:21:15.337Z,2.1
2018-01-17T13:22:35.155Z,2.2
2018-01-17T13:23:54.973Z,2.2
2018-01-17T13:25:14.776Z,2.1
2018-01-17T13:26:34.605Z,1.9
2018-01-17T13:27:59.477Z,1.9
2018-01-17T13:29:24.397Z,2
2018-01-17T13:30:46.718Z,2.3
2018-01-17T13:32:14.167Z,2.4
2018-01-17T13:33:33.987Z,2.2
2018-01-17T13:34:56.356Z,2
2018-01-17T13:36:21.324Z,1.7
2018-01-17T13:37:41.172Z,1.6
2018-01-17T13:39:01.059Z,1.6
2018-01-17T13:40:20.905Z,1.6
2018-01-17T13:41:40.828Z,1.6
2018-01-17T13:43:00.645Z,1.5
2018-01-17T13:44:20.477Z,1.5
2018-01-17T13:45:42.865Z,1.5
2018-01-17T13:47:05.225Z,1.5
2018-01-17T13:48:27.593Z,1.4
2018-01-17T13:49:47.434Z,1.3
2018-01-17T13:51:12.363Z,1.3
2018-01-17T13:52:42.334Z,1.3
2018-01-17T13:54:02.148Z,1.4
2018-01-17T13:55:27.055Z,1.4
2018-01-17T13:56:46.923Z,1.4
2018-01-17T13:58:09.302Z,1.2
2018-01-17T13:59:29.112Z,1.1
2018-01-17T14:00:51.543Z,1.1
2018-01-17T14:02:11.421Z,1
2018-01-17T14:03:33.767Z,0.9
2018-01-17T14:04:53.564Z,0.9
2018-01-17T14:06:13.372Z,0.9
2018-01-17T14:07:33.175Z,0.8
2018-01-17T14:08:52.994Z,0.7
2018-01-17T14:10:20.396Z,0.8
2018-01-17T14:11:47.789Z,0.7
2018-01-17T14:13:10.167Z,0.7
2018-01-17T14:14:30.018Z,0.7
2018-01-17T14:15:49.831Z,0.8
2018-01-17T14:17:12.171Z,0.8
2018-01-17T14:18:31.982Z,1
2018-01-17T14:19:51.815Z,1
2018-01-17T14:21:14.146Z,1.1
2018-01-17T14:22:36.506Z,1.2
2018-01-17T14:24:03.967Z,1.2
2018-01-17T14:25:26.320Z,1.1
2018-01-17T14:26:46.149Z,1.1
2018-01-17T14:28:11.077Z,1.1
2018-01-17T14:29:30.956Z,1.1
2018-01-17T14:30:53.341Z,1.1
2018-01-17T14:32:15.681Z,1.1
2018-01-17T14:33:35.516Z,1.1
2018-01-17T14:34:57.921Z,1
2018-01-17T14:36:17.728Z,1
2018-01-17T14:37:45.173Z,1
2018-01-17T14:39:04.977Z,1
2018-01-17T14:40:27.327Z,0.9
2018-01-17T14:41:52.200Z,0.9
2018-01-17T14:43:17.048Z,0.8
2018-01-17T14:44:36.914Z,0.7
2018-01-17T14:45:56.734Z,0.7
2018-01-17T14:47:21.655Z,0.6
2018-01-17T14:48:44.000Z,0.6
2018-01-17T14:50:03.807Z,0.6
2018-01-17T14:51:23.632Z,0.6
2018-01-17T14:52:43.447Z,0.5
2018-01-17T14:54:03.257Z,0.4
2018-01-17T14:55:28.169Z,0.3
2018-01-17T14:56:47.989Z,0.2
2018-01-17T14:58:07.842Z,0.1
2018-01-17T14:59:27.679Z,0.1
2018-01-17T15:00:52.568Z,0.1
2018-01-17T15:02:12.399Z,0.1
2018-01-17T15:03:32.218Z,0.1
2018-01-17T15:05:02.132Z,0.1
2018-01-17T15:06:24.466Z,0.1
2018-01-17T15:07:44.324Z,0.1
2018-01-17T15:09:06.678Z,0.1
2018-01-17T15:10:31.642Z,0.1
2018-01-17T15:11:53.986Z,0.1
2018-01-17T15:13:18.882Z,0.1
2018-01-17T15:14:41.239Z,0.1
2018-01-17T15:16:03.592Z,0
2018-01-17T15:17:25.986Z,0
2018-01-17T15:18:53.383Z,-0.1
2018-01-17T15:20:13.254Z,-0.2
2018-01-17T15:21:33.077Z,-0.2
2018-01-17T15:22:52.911Z,-0.2
2018-01-17T15:24:17.821Z,-0.2
2018-01-17T15:25:42.706Z,-0.2
2018-01-17T15:27:10.175Z,-0.2
2018-01-17T15:28:35.080Z,-0.2
2018-01-17T15:29:54.902Z,-0.2
2018-01-17T15:31:14.739Z,-0.2
2018-01-17T15:32:34.583Z,-0.2
2018-01-17T15:33:54.402Z,-0.2
2018-01-17T15:35:14.265Z,-0.2
2018-01-17T15:36:34.130Z,-0.2
2018-01-17T15:38:11.682Z,-0.2
2018-01-17T15:39:31.541Z,-0.2
2018-01-17T15:40:53.903Z,-0.2
2018-01-17T15:42:13.774Z,-0.2
2018-01-17T15:43:36.152Z,-0.2
2018-01-17T15:44:56.013Z,-0.2
2018-01-17T15:46:20.944Z,-0.2
2018-01-17T15:47:40.805Z,-0.2
2018-01-17T15:49:08.280Z,-0.2
2018-01-17T15:50:33.181Z,-0.2
2018-01-17T15:51:55.543Z,-0.2
2018-01-17T15:53:15.388Z,-0.2
2018-01-17T15:54:35.202Z,-0.2
2018-01-17T15:56:00.115Z,-0.3
2018-01-17T15:57:19.996Z,-0.3
2018-01-17T15:58:52.499Z,-0.3
2018-01-17T16:00:14.889Z,-0.3
2018-01-17T16:01:39.780Z,-0.3
2018-01-17T16:03:04.668Z,-0.4
2018-01-17T16:04:24.549Z,-0.4
2018-01-17T16:05:44.408Z,-0.4
2018-01-17T16:07:04.288Z,-0.3
2018-01-17T16:08:29.206Z,-0.4
2018-01-17T16:09:49.058Z,-0.4
2018-01-17T16:11:11.495Z,-0.4
2018-01-17T16:12:31.382Z,-0.3
2018-01-17T16:13:51.234Z,-0.3
2018-01-17T16:15:11.100Z,-0.3
2018-01-17T16:16:30.998Z,-0.2
2018-01-17T16:17:50.892Z,-0.2
2018-01-17T16:19:18.353Z,-0.2
2018-01-17T16:20:38.193Z,-0.2
2018-01-17T16:22:03.080Z,-0.2
2018-01-17T16:23:43.165Z,-0.1
2018-01-17T16:25:05.512Z,-0.2
2018-01-17T16:26:25.396Z,-0.1
2018-01-17T16:27:52.831Z,-0.2
2018-01-17T16:29:12.682Z,-0.1
2018-01-17T16:30:35.038Z,-0.2
2018-01-17T16:31:54.900Z,-0.2
2018-01-17T16:33:14.728Z,-0.1
2018-01-17T16:34:34.573Z,-0.1
2018-01-17T16:35:56.943Z,-0.1
2018-01-17T16:37:16.786Z,-0.1
2018-01-17T16:38:36.678Z,-0.1
2018-01-17T16:39:59.046Z,-0.2
2018-01-17T16:41:18.897Z,-0.2
2018-01-17T16:42:48.847Z,-0.2
2018-01-17T16:44:16.300Z,-0.2
2018-01-17T16:45:43.718Z,-0.2
2018-01-17T16:47:08.610Z,-0.2
2018-01-17T16:48:31.008Z,-0.2
2018-01-17T16:49:50.865Z,-0.2
2018-01-17T16:51:10.729Z,-0.2
2018-01-17T16:52:35.640Z,-0.2
2018-01-17T16:53:58.028Z,-0.1
2018-01-17T16:55:17.887Z,-0.1
2018-01-17T16:56:40.320Z,-0.1
2018-01-17T16:58:00.149Z,-0.1
2018-01-17T16:59:27.582Z,-0.1
2018-01-17T17:00:47.412Z,-0.1
2018-01-17T17:02:09.758Z,-0.1
2018-01-17T17:03:32.139Z,0
2018-01-17T17:04:54.494Z,-0.1
2018-01-17T17:06:16.899Z,-0.1
2018-01-17T17:07:36.774Z,-0.1
2018-01-17T17:08:56.634Z,-0.1
2018-01-17T17:10:16.491Z,-0.1
2018-01-17T17:11:36.380Z,0
2018-01-17T17:12:56.280Z,0
2018-01-17T17:14:16.195Z,0
2018-01-17T17:15:36.092Z,0
2018-01-17T17:17:16.203Z,-0.1
2018-01-17T17:18:41.121Z,-0.1
2018-01-17T17:20:00.967Z,-0.2
2018-01-17T17:21:20.819Z,-0.3
2018-01-17T17:22:43.168Z,-0.3
2018-01-17T17:24:10.583Z,-0.3
2018-01-17T17:25:33.002Z,-0.3
2018-01-17T17:26:52.839Z,-0.3
2018-01-17T17:28:15.211Z,-0.3
2018-01-17T17:29:35.028Z,-0.3
2018-01-17T17:30:54.901Z,-0.3
2018-01-17T17:32:17.271Z,-0.2
2018-01-17T17:33:39.646Z,-0.2
2018-01-17T17:34:59.473Z,-0.2
2018-01-17T17:36:26.947Z,-0.1
2018-01-17T17:37:46.815Z,-0.1
2018-01-17T17:39:06.698Z,-0.1
2018-01-17T17:40:26.543Z,-0.1
2018-01-17T17:41:48.894Z,-0.2
2018-01-17T17:43:08.736Z,-0.3
2018-01-17T17:44:28.573Z,-0.3
2018-01-17T17:45:51.009Z,-0.4
2018-01-17T17:47:10.886Z,-0.4
2018-01-17T17:48:30.724Z,-0.5
2018-01-17T17:49:50.562Z,-0.5
2018-01-17T17:51:23.074Z,-0.5
2018-01-17T17:52:42.921Z,-0.5
2018-01-17T17:54:05.284Z,-0.5
2018-01-17T17:55:25.169Z,-0.5
2018-01-17T17:56:52.592Z,-0.3
2018-01-17T17:58:12.415Z,-0.3
2018-01-17T17:59:42.366Z,-0.2
2018-01-17T18:01:07.260Z,-0.2
2018-01-17T18:02:29.654Z,-0.2
2018-01-17T18:04:02.142Z,-0.1
2018-01-17T18:05:24.515Z,-0.1
2018-01-17T18:06:44.383Z,0
2018-01-17T18:08:04.221Z,0
2018-01-17T18:09:29.116Z,0
2018-01-17T18:10:48.963Z,0
2018-01-17T18:12:08.791Z,0
2018-01-17T18:13:28.629Z,0
2018-01-17T18:14:48.458Z,0
2018-01-17T18:16:08.296Z,0
2018-01-17T18:17:28.129Z,0
2018-01-17T18:18:47.966Z,0
2018-01-17T18:20:22.985Z,-0.1
2018-01-17T18:21:42.822Z,0
2018-01-17T18:23:02.633Z,0
2018-01-17T18:24:24.975Z,0
2018-01-17T18:25:49.873Z,0
2018-01-17T18:27:09.694Z,0
2018-01-17T18:28:32.049Z,0.1
2018-01-17T18:29:51.905Z,0.1
2018-01-17T18:31:11.724Z,0.1
2018-01-17T18:32:39.140Z,0.1
2018-01-17T18:33:58.935Z,0.1
2018-01-17T18:35:18.774Z,0.1
2018-01-17T18:36:38.602Z,0.1
2018-01-17T18:37:58.417Z,0.1
2018-01-17T18:39:18.220Z,0.1
2018-01-17T18:40:38.047Z,0
2018-01-17T18:42:00.447Z,0
2018-01-17T18:43:22.787Z,0
2018-01-17T18:44:47.674Z,0
2018-01-17T18:46:07.492Z,-0.1
2018-01-17T18:47:27.345Z,0
2018-01-17T18:48:52.229Z,0.1
2018-01-17T18:50:12.025Z,0.1